Time;durP1;ratioP1;P1;durP2;ratioP2;P2;SDS_P1;SDS_P2;PMS_P1;PMS_P2;Temp;Humidity;BMP_temperature;BMP_pressure;BME280_temperature;BME280_humidity;BME280_pressure;Samples;Min_cycle;Max_cycle;Signal;HPM_P1;HPM_P2
2023/04/11 00:00:12;;;;;;;2.17;1.10;;;9.60;99.90;;;;;;5052734;28;20417;-68
2023/04/11 00:02:38;;;;;;;4.23;1.40;;;9.60;99.90;;;;;;5052616;28;20167;-68
2023/04/11 00:05:05;;;;;;;3.93;1.00;;;9.70;99.90;;;;;;5052311;28;20429;-68
2023/04/11 00:07:31;;;;;;;1.30;1.00;;;9.80;99.90;;;;;;5052125;28;20174;-68
2023/04/11 00:09:59;;;;;;;1.20;0.93;;;9.80;99.90;;;;;;5052484;28;20432;-68
2023/04/11 00:12:25;;;;;;;4.40;1.30;;;9.90;99.90;;;;;;5052225;28;20190;-69
2023/04/11 00:14:52;;;;;;;5.20;1.80;;;9.90;99.90;;;;;;5052389;28;20433;-68
2023/04/11 00:17:18;;;;;;;1.97;1.30;;;10.00;99.90;;;;;;5051922;28;20190;-68
2023/04/11 00:19:48;;;;;;;7.80;1.43;;;10.10;99.90;;;;;;5052200;28;20416;-68
2023/04/11 00:22:16;;;;;;;2.47;1.07;;;10.00;99.90;;;;;;5052164;28;20476;-67
2023/04/11 00:24:42;;;;;;;2.43;1.20;;;10.10;99.90;;;;;;5052154;28;20425;-68
2023/04/11 00:27:07;;;;;;;5.33;1.23;;;10.10;99.90;;;;;;5051818;28;20916;-68
2023/04/11 00:29:34;;;;;;;1.93;1.20;;;10.10;99.90;;;;;;5052105;28;20609;-68
2023/04/11 00:32:00;;;;;;;6.33;1.33;;;10.10;99.90;;;;;;5052051;28;20582;-67
2023/04/11 00:34:26;;;;;;;7.10;1.47;;;10.20;99.90;;;;;;5051954;28;20425;-68
2023/04/11 00:36:52;;;;;;;2.67;1.00;;;10.20;99.90;;;;;;5051620;28;20264;-68
2023/04/11 00:39:19;;;;;;;2.50;1.37;;;10.20;99.90;;;;;;5052009;28;20405;-69
2023/04/11 00:41:45;;;;;;;5.27;1.40;;;10.20;99.90;;;;;;5051898;28;20167;-69
2023/04/11 00:44:12;;;;;;;3.67;1.70;;;10.20;99.90;;;;;;5051911;28;20480;-68
2023/04/11 00:46:41;;;;;;;4.43;1.50;;;10.30;99.90;;;;;;5051873;28;20413;-69
2023/04/11 00:49:07;;;;;;;4.03;1.70;;;10.30;99.90;;;;;;5051759;28;20787;-68
2023/04/11 00:51:34;;;;;;;3.27;1.53;;;10.30;99.90;;;;;;5051857;28;20417;-68
2023/04/11 00:54:00;;;;;;;5.33;1.80;;;10.30;99.90;;;;;;5051773;28;20922;-68
2023/04/11 00:56:27;;;;;;;3.50;1.87;;;10.40;99.90;;;;;;5049577;28;20459;-68
2023/04/11 00:58:52;;;;;;;6.43;1.30;;;10.40;99.90;;;;;;5051419;28;20488;-68
2023/04/11 01:01:18;;;;;;;5.80;1.37;;;10.40;99.90;;;;;;5051522;28;20435;-69
2023/04/11 01:03:44;;;;;;;2.73;1.90;;;10.50;99.90;;;;;;5051582;28;20186;-68
2023/04/11 01:06:12;;;;;;;7.60;1.70;;;10.40;99.90;;;;;;5051752;28;20409;-69
2023/04/11 01:08:40;;;;;;;6.17;1.43;;;10.40;99.90;;;;;;5051383;28;20406;-68
2023/04/11 01:11:07;;;;;;;6.47;2.10;;;10.30;99.90;;;;;;5051747;28;20413;-68
2023/04/11 01:13:34;;;;;;;4.13;1.80;;;10.30;99.90;;;;;;5051318;28;20435;-68
2023/04/11 01:16:00;;;;;;;5.47;1.50;;;10.20;99.90;;;;;;5051646;28;20470;-68
2023/04/11 01:18:26;;;;;;;17.43;1.97;;;10.10;99.90;;;;;;5050962;28;20485;-68
2023/04/11 01:20:52;;;;;;;6.20;1.53;;;10.00;99.90;;;;;;5051183;28;20163;-69
2023/04/11 01:23:22;;;;;;;3.00;1.80;;;10.00;99.90;;;;;;5051066;28;20409;-69
2023/04/11 01:25:48;;;;;;;10.90;1.90;;;9.90;99.90;;;;;;5051554;28;20401;-68
2023/04/11 01:28:13;;;;;;;4.80;1.83;;;9.80;99.90;;;;;;5051153;28;20455;-68
2023/04/11 01:30:39;;;;;;;8.93;2.27;;;9.80;99.90;;;;;;5051583;28;20471;-69
2023/04/11 01:33:05;;;;;;;5.07;1.67;;;9.70;99.90;;;;;;5051451;28;20808;-68
2023/04/11 01:35:30;;;;;;;3.97;1.57;;;9.70;99.90;;;;;;5051399;28;20553;-68
2023/04/11 01:37:56;;;;;;;7.63;2.10;;;9.70;99.90;;;;;;5051062;28;20281;-68
2023/04/11 01:40:22;;;;;;;5.60;2.30;;;9.60;99.90;;;;;;5051428;28;20221;-68
2023/04/11 01:42:50;;;;;;;4.97;1.70;;;9.70;99.90;;;;;;5051380;28;20640;-68
2023/04/11 01:45:16;;;;;;;5.73;2.17;;;9.50;99.90;;;;;;5051236;28;20442;-67
2023/04/11 01:47:43;;;;;;;8.33;2.40;;;9.50;99.90;;;;;;5050922;28;20409;-67
2023/04/11 01:50:10;;;;;;;4.53;1.93;;;9.50;99.90;;;;;;5051263;28;20444;-68
2023/04/11 01:52:36;;;;;;;13.40;2.27;;;9.50;99.90;;;;;;5051273;28;20404;-68
2023/04/11 01:55:02;;;;;;;7.10;1.90;;;9.40;99.90;;;;;;5051131;28;20918;-69
2023/04/11 01:57:27;;;;;;;7.67;2.37;;;9.50;99.90;;;;;;5050993;28;20236;-70
2023/04/11 01:59:53;;;;;;;4.93;2.13;;;9.50;99.90;;;;;;5050991;28;20171;-69
2023/04/11 02:02:18;;;;;;;14.73;3.17;;;9.60;99.90;;;;;;5050608;28;20218;-68
2023/04/11 02:04:44;;;;;;;5.13;1.87;;;9.60;99.90;;;;;;5050599;28;20183;-68
2023/04/11 02:07:10;;;;;;;9.73;2.73;;;9.80;99.90;;;;;;5050839;28;20656;-69
2023/04/11 02:09:36;;;;;;;9.13;3.57;;;9.80;99.90;;;;;;5054550;28;20163;-70
2023/04/11 02:12:02;;;;;;;4.90;1.90;;;9.90;99.90;;;;;;5054762;28;20515;-69
2023/04/11 02:14:39;;;;;;;9.87;2.40;;;9.90;99.90;;;;;;5054491;28;20209;-70
2023/04/11 02:17:08;;;;;;;7.53;3.03;;;9.80;99.90;;;;;;5054215;28;20217;-69
2023/04/11 02:19:34;;;;;;;8.73;2.10;;;9.70;99.90;;;;;;5054500;28;20401;-69
2023/04/11 02:22:00;;;;;;;7.50;2.13;;;9.60;99.90;;;;;;5054513;28;20397;-69
2023/04/11 02:24:27;;;;;;;16.03;2.67;;;9.60;99.90;;;;;;5054418;28;20421;-69
2023/04/11 02:26:52;;;;;;;8.33;2.50;;;9.50;99.90;;;;;;5054100;28;20462;-68
2023/04/11 02:29:18;;;;;;;1.73;1.40;;;9.60;99.90;;;;;;5053055;28;20500;-69
2023/04/11 02:31:43;;;;;;;7.57;2.80;;;9.70;99.90;;;;;;5054201;28;20268;-69
2023/04/11 02:34:09;;;;;;;7.83;2.23;;;9.80;99.90;;;;;;5054264;28;20190;-68
2023/04/11 02:36:35;;;;;;;9.33;3.10;;;9.80;99.90;;;;;;5053923;28;20199;-70
2023/04/11 02:39:00;;;;;;;6.30;2.60;;;9.80;99.90;;;;;;5053885;28;20539;-68
2023/04/11 02:41:26;;;;;;;8.23;3.43;;;9.80;99.90;;;;;;5054281;28;20925;-68
2023/04/11 02:43:52;;;;;;;7.53;3.20;;;9.80;99.90;;;;;;5054174;28;20257;-68
2023/04/11 02:46:18;;;;;;;11.87;3.10;;;9.80;99.90;;;;;;5053937;28;20163;-69
2023/04/11 02:48:43;;;;;;;6.33;2.23;;;9.80;99.90;;;;;;5053968;28;20397;-69
2023/04/11 02:51:09;;;;;;;14.37;2.60;;;9.70;99.90;;;;;;5054347;28;20167;-68
2023/04/11 02:53:34;;;;;;;5.70;2.03;;;9.50;99.90;;;;;;5054210;28;20173;-69
2023/04/11 02:56:00;;;;;;;10.50;2.30;;;9.40;99.90;;;;;;5053958;28;20171;-68
2023/04/11 02:58:27;;;;;;;4.67;2.43;;;9.30;99.90;;;;;;5053393;28;20167;-69
2023/04/11 03:00:53;;;;;;;6.10;2.50;;;9.20;99.90;;;;;;5053840;28;20198;-69
2023/04/11 03:03:18;;;;;;;9.73;2.30;;;9.10;99.90;;;;;;5053678;28;20441;-67
2023/04/11 03:05:44;;;;;;;12.70;2.60;;;9.00;99.90;;;;;;5053673;28;20206;-68
2023/04/11 03:08:09;;;;;;;6.20;2.07;;;8.90;99.90;;;;;;5053361;28;20163;-68
2023/04/11 03:10:35;;;;;;;6.80;1.77;;;8.90;99.90;;;;;;5053629;28;20195;-68
2023/04/11 03:13:00;;;;;;;15.93;2.53;;;8.90;99.90;;;;;;5053309;28;20273;-68
2023/04/11 03:15:26;;;;;;;5.90;2.33;;;8.80;99.90;;;;;;5053359;28;20189;-68
2023/04/11 03:17:52;;;;;;;3.47;2.03;;;8.80;99.90;;;;;;5053083;28;20202;-69
2023/04/11 03:20:20;;;;;;;12.63;2.33;;;8.70;99.90;;;;;;5052607;28;20926;-67
2023/04/11 03:22:45;;;;;;;10.67;2.10;;;8.80;99.90;;;;;;5053266;28;20163;-68
2023/04/11 03:25:11;;;;;;;4.67;1.97;;;8.70;99.90;;;;;;5053354;28;20428;-69
2023/04/11 03:27:37;;;;;;;16.13;2.53;;;8.60;99.90;;;;;;5052966;28;20246;-69
2023/04/11 03:30:03;;;;;;;8.93;2.33;;;8.60;99.90;;;;;;5053251;28;20174;-69
2023/04/11 03:32:29;;;;;;;5.73;2.13;;;8.60;99.90;;;;;;5052917;28;20171;-68
2023/04/11 03:34:59;;;;;;;11.03;2.43;;;8.50;99.90;;;;;;5053021;28;20930;-69
2023/04/11 03:37:24;;;;;;;12.83;2.90;;;8.50;99.90;;;;;;5052690;28;20555;-69
2023/04/11 03:39:50;;;;;;;4.70;2.50;;;8.50;99.90;;;;;;5053047;28;20997;-68
2023/04/11 03:42:16;;;;;;;6.03;2.33;;;8.50;99.90;;;;;;5052974;28;20573;-68
2023/04/11 03:44:41;;;;;;;11.63;2.70;;;8.40;99.90;;;;;;5052921;28;20179;-68
2023/04/11 03:47:06;;;;;;;9.33;2.40;;;8.40;99.90;;;;;;5052631;28;20245;-68
2023/04/11 03:49:32;;;;;;;8.90;2.97;;;8.40;99.90;;;;;;5052820;28;20604;-67
2023/04/11 03:51:57;;;;;;;5.37;2.80;;;8.40;99.90;;;;;;5051534;28;20262;-68
2023/04/11 03:54:23;;;;;;;10.70;2.50;;;8.30;99.90;;;;;;5052621;28;20205;-68
2023/04/11 03:56:48;;;;;;;7.53;2.60;;;8.30;99.90;;;;;;5052517;28;20234;-68
2023/04/11 03:59:14;;;;;;;7.10;2.00;;;8.40;99.90;;;;;;5052727;28;20163;-69
2023/04/11 04:01:40;;;;;;;3.40;2.20;;;8.40;99.90;;;;;;5052866;28;20590;-69
2023/04/11 04:04:06;;;;;;;11.07;2.77;;;8.40;99.90;;;;;;5052650;28;20265;-68
2023/04/11 04:06:31;;;;;;;12.00;2.57;;;8.50;99.90;;;;;;5052557;28;20647;-69
2023/04/11 04:08:58;;;;;;;8.83;2.63;;;8.50;99.90;;;;;;5052107;28;20418;-68
2023/04/11 04:11:24;;;;;;;3.87;2.57;;;8.60;99.90;;;;;;5052614;28;20167;-68
2023/04/11 04:13:49;;;;;;;9.73;2.93;;;8.60;99.90;;;;;;5052184;28;20453;-67
2023/04/11 04:16:16;;;;;;;11.40;2.20;;;8.70;99.90;;;;;;5052278;28;20171;-70
2023/04/11 04:18:42;;;;;;;9.43;3.17;;;8.70;99.90;;;;;;5052073;28;20189;-67
2023/04/11 04:21:08;;;;;;;9.13;3.23;;;8.80;99.90;;;;;;5052289;28;20517;-69
2023/04/11 04:23:35;;;;;;;17.27;2.93;;;8.80;99.90;;;;;;5052617;28;20841;-69
2023/04/11 04:26:01;;;;;;;7.80;2.40;;;8.90;99.90;;;;;;5052689;28;20586;-69
2023/04/11 04:28:27;;;;;;;3.20;2.43;;;8.80;99.90;;;;;;5052609;28;20436;-69
2023/04/11 04:30:56;;;;;;;8.43;1.67;;;8.80;99.90;;;;;;5052653;28;20416;-69
2023/04/11 04:33:22;;;;;;;7.17;2.40;;;8.80;99.90;;;;;;5052903;28;20783;-69
2023/04/11 04:35:50;;;;;;;7.57;2.80;;;8.70;99.90;;;;;;5052746;28;20405;-68
2023/04/11 04:38:16;;;;;;;10.90;2.33;;;8.70;99.90;;;;;;5052636;28;20449;-69
2023/04/11 04:40:42;;;;;;;12.17;2.07;;;8.70;99.90;;;;;;5052366;28;20402;-68
2023/04/11 04:43:17;;;;;;;8.43;2.80;;;8.70;99.90;;;;;;5052253;28;20410;-69
2023/04/11 04:45:46;;;;;;;4.73;2.50;;;8.70;99.90;;;;;;5051963;28;20393;-69
2023/04/11 04:48:16;;;;;;;7.00;2.40;;;8.70;99.90;;;;;;5051672;28;20488;-68
2023/04/11 04:50:42;;;;;;;4.33;1.60;;;8.70;99.90;;;;;;5052173;28;20933;-69
2023/04/11 04:53:07;;;;;;;4.70;2.10;;;8.70;99.90;;;;;;5052851;28;20409;-69
2023/04/11 04:55:33;;;;;;;12.30;2.63;;;8.70;99.90;;;;;;5052550;28;20429;-69
2023/04/11 04:57:58;;;;;;;9.87;3.43;;;8.70;99.90;;;;;;5051826;28;20202;-69
2023/04/11 05:00:24;;;;;;;7.60;2.50;;;8.70;99.90;;;;;;5050417;28;20184;-69
2023/04/11 05:02:53;;;;;;;7.80;2.40;;;8.60;99.90;;;;;;5051768;28;20171;-74
2023/04/11 05:05:19;;;;;;;6.77;3.17;;;8.70;99.90;;;;;;5052019;28;20187;-69
2023/04/11 05:07:44;;;;;;;7.37;2.50;;;8.60;99.90;;;;;;5050400;28;20893;-70
2023/04/11 05:10:10;;;;;;;2.80;1.90;;;8.70;99.90;;;;;;5052457;28;20182;-69
2023/04/11 05:12:35;;;;;;;11.10;2.57;;;8.70;99.90;;;;;;5051771;28;20196;-68
2023/04/11 05:15:01;;;;;;;16.27;3.07;;;8.70;99.90;;;;;;5052424;28;20610;-68
2023/04/11 05:17:28;;;;;;;10.90;3.53;;;8.70;99.90;;;;;;5052157;28;20198;-68
2023/04/11 05:19:53;;;;;;;9.57;2.60;;;8.70;99.90;;;;;;5052341;28;20241;-69
2023/04/11 05:22:19;;;;;;;3.90;2.40;;;8.70;99.90;;;;;;5051802;28;20401;-68
2023/04/11 05:24:44;;;;;;;7.10;3.13;;;8.80;99.90;;;;;;5051812;28;20714;-70
2023/04/11 05:27:10;;;;;;;5.00;2.27;;;8.80;99.90;;;;;;5051430;28;20175;-69
2023/04/11 05:29:35;;;;;;;3.47;2.63;;;8.70;99.90;;;;;;5051871;28;20193;-68
2023/04/11 05:32:01;;;;;;;2.77;2.20;;;8.70;99.90;;;;;;5050641;28;20198;-69
2023/04/11 05:34:31;;;;;;;5.43;2.83;;;8.90;99.90;;;;;;5051422;28;20202;-67
2023/04/11 05:36:57;;;;;;;5.27;2.10;;;9.00;99.90;;;;;;5049825;28;20198;-68
2023/04/11 05:39:22;;;;;;;6.60;2.73;;;9.20;99.90;;;;;;5051425;28;20405;-68
2023/04/11 05:41:48;;;;;;;13.57;3.90;;;9.20;99.90;;;;;;5051400;28;20166;-69
2023/04/11 05:44:14;;;;;;;8.13;2.33;;;9.40;99.90;;;;;;5054234;28;20652;-69
2023/04/11 05:46:39;;;;;;;7.90;3.03;;;9.80;99.90;;;;;;5054089;28;20182;-68
2023/04/11 05:49:05;;;;;;;3.90;1.83;;;10.30;99.90;;;;;;5055132;28;20170;-68
2023/04/11 05:51:30;;;;;;;12.60;2.90;;;10.80;99.90;;;;;;5055075;28;20171;-68
2023/04/11 05:53:56;;;;;;;15.10;2.43;;;10.80;99.90;;;;;;5055051;28;20244;-68
2023/04/11 05:56:21;;;;;;;5.47;2.07;;;10.90;99.90;;;;;;5055316;28;20171;-68
2023/04/11 05:58:47;;;;;;;4.07;2.03;;;10.80;99.90;;;;;;5054601;28;20174;-68
2023/04/11 06:01:17;;;;;;;8.23;3.10;;;10.70;99.90;;;;;;5055402;28;20163;-69
2023/04/11 06:03:44;;;;;;;5.17;2.07;;;10.70;99.90;;;;;;5054940;28;20584;-67
2023/04/11 06:06:10;;;;;;;11.70;3.20;;;10.70;99.90;;;;;;5054580;28;20429;-68
2023/04/11 06:08:35;;;;;;;10.03;3.33;;;10.80;99.90;;;;;;5054354;28;20437;-69
2023/04/11 06:11:01;;;;;;;6.47;1.90;;;10.80;99.90;;;;;;5054751;28;20171;-69
2023/04/11 06:13:26;;;;;;;6.53;1.93;;;10.90;99.90;;;;;;5054461;28;20187;-68
2023/04/11 06:15:52;;;;;;;5.60;2.17;;;11.00;99.90;;;;;;5054731;28;20199;-69
2023/04/11 06:18:17;;;;;;;12.93;3.80;;;11.00;99.90;;;;;;5052756;28;20289;-68
2023/04/11 06:20:45;;;;;;;4.13;1.83;;;10.80;99.90;;;;;;5054700;28;20178;-68
2023/04/11 06:23:10;;;;;;;3.70;1.87;;;11.20;99.90;;;;;;5054513;28;20171;-69
2023/04/11 06:25:36;;;;;;;12.17;2.13;;;12.10;99.90;;;;;;5054562;28;20501;-69
2023/04/11 06:28:01;;;;;;;2.60;1.47;;;13.10;99.90;;;;;;5054408;28;20608;-69
2023/04/11 06:30:27;;;;;;;13.00;2.37;;;13.70;99.90;;;;;;5054464;28;20644;-69
2023/04/11 06:32:52;;;;;;;7.73;2.47;;;14.30;99.90;;;;;;5054621;28;20649;-70
2023/04/11 06:35:19;;;;;;;5.00;2.27;;;15.00;99.90;;;;;;5054605;28;20211;-68
2023/04/11 06:37:45;;;;;;;3.77;2.30;;;15.30;99.90;;;;;;5054137;28;20191;-68
2023/04/11 06:40:11;;;;;;;6.03;1.60;;;15.40;99.90;;;;;;5052848;28;20505;-68
2023/04/11 06:42:37;;;;;;;3.47;2.30;;;15.30;99.90;;;;;;5054152;28;20190;-69
2023/04/11 06:45:03;;;;;;;8.37;2.10;;;15.60;99.90;;;;;;5054028;28;20448;-70
2023/04/11 06:47:29;;;;;;;4.43;1.73;;;16.40;99.90;;;;;;5052468;28;20702;-72
2023/04/11 06:49:55;;;;;;;2.60;1.87;;;17.30;99.90;;;;;;5054095;28;20413;-73
2023/04/11 06:52:21;;;;;;;3.70;2.13;;;18.10;96.30;;;;;;5054018;28;20174;-72
2023/04/11 06:54:47;;;;;;;3.93;2.13;;;18.70;91.10;;;;;;5052645;28;20187;-72
2023/04/11 06:57:13;;;;;;;9.27;2.60;;;19.20;86.50;;;;;;5053498;28;20183;-72
2023/04/11 06:59:38;;;;;;;5.57;1.80;;;19.30;83.20;;;;;;5053785;28;20427;-73
2023/04/11 07:02:04;;;;;;;5.43;2.10;;;19.30;80.50;;;;;;5053705;28;20667;-73
2023/04/11 07:04:29;;;;;;;4.87;2.90;;;19.00;80.00;;;;;;5053672;28;20183;-72
2023/04/11 07:06:55;;;;;;;9.63;2.97;;;18.60;77.70;;;;;;5053479;28;20171;-72
2023/04/11 07:09:21;;;;;;;4.83;2.37;;;18.00;78.30;;;;;;5053702;28;20169;-73
2023/04/11 07:11:47;;;;;;;6.53;2.73;;;17.90;83.80;;;;;;5053572;28;20159;-72
2023/04/11 07:14:12;;;;;;;7.33;2.20;;;18.40;77.50;;;;;;5053475;28;20452;-72
2023/04/11 07:16:38;;;;;;;3.93;2.33;;;19.50;80.40;;;;;;5053428;28;20191;-74
2023/04/11 07:19:03;;;;;;;4.43;1.90;;;21.00;74.50;;;;;;5053249;28;20505;-73
2023/04/11 07:21:31;;;;;;;9.67;3.00;;;21.50;64.30;;;;;;5053419;28;20171;-73
2023/04/11 07:23:56;;;;;;;5.33;1.90;;;21.80;59.90;;;;;;5053347;28;20258;-72
2023/04/11 07:26:22;;;;;;;4.40;2.40;;;22.40;57.10;;;;;;5053354;28;20488;-73
2023/04/11 07:28:48;;;;;;;14.90;1.83;;;22.60;57.40;;;;;;5053041;28;20167;-72
2023/04/11 07:31:16;;;;;;;7.03;2.77;;;23.20;54.90;;;;;;5052120;28;20483;-72
2023/04/11 07:33:42;;;;;;;7.07;2.13;;;23.10;53.30;;;;;;5052695;28;20516;-74
2023/04/11 07:36:08;;;;;;;4.83;1.77;;;22.40;52.90;;;;;;5053143;28;20488;-73
2023/04/11 07:38:36;;;;;;;9.33;2.03;;;21.50;52.90;;;;;;5052927;28;20492;-73
2023/04/11 07:41:03;;;;;;;3.53;2.33;;;21.10;54.10;;;;;;5052967;28;20905;-72
2023/04/11 07:43:29;;;;;;;6.10;1.67;;;21.50;52.80;;;;;;5052851;28;20401;-72
2023/04/11 07:45:56;;;;;;;2.97;2.33;;;22.30;53.50;;;;;;5053046;28;20918;-72
2023/04/11 07:48:23;;;;;;;4.80;1.80;;;23.00;52.60;;;;;;5050924;28;20455;-70
2023/04/11 07:50:48;;;;;;;4.90;2.00;;;23.30;50.90;;;;;;5052921;28;20412;-72
2023/04/11 07:53:14;;;;;;;8.07;1.80;;;23.70;50.90;;;;;;5052730;28;20406;-70
2023/04/11 07:55:40;;;;;;;3.20;1.50;;;24.00;49.80;;;;;;5052679;28;20221;-71
2023/04/11 07:58:06;;;;;;;8.07;2.00;;;23.50;48.80;;;;;;5052399;28;20548;-71
2023/04/11 08:00:32;;;;;;;4.83;1.90;;;21.80;46.80;;;;;;5052612;28;20171;-71
2023/04/11 08:03:05;;;;;;;3.67;1.57;;;21.00;49.40;;;;;;5052670;28;20405;-72
2023/04/11 08:05:32;;;;;;;4.70;1.80;;;21.50;51.20;;;;;;5050829;28;20194;-71
2023/04/11 08:07:58;;;;;;;5.43;1.70;;;22.70;50.90;;;;;;5052311;28;20492;-72
2023/04/11 08:10:24;;;;;;;3.23;1.50;;;22.80;49.30;;;;;;5051200;28;20496;-71
2023/04/11 08:12:50;;;;;;;4.83;1.87;;;22.90;48.60;;;;;;5052277;28;20206;-73
2023/04/11 08:15:16;;;;;;;4.63;2.27;;;22.90;47.30;;;;;;5052273;28;20461;-72
2023/04/11 08:17:42;;;;;;;5.47;1.53;;;22.70;47.30;;;;;;5052136;28;20823;-72
2023/04/11 08:20:09;;;;;;;3.07;1.43;;;23.00;47.50;;;;;;5051083;28;20409;-70
2023/04/11 08:22:35;;;;;;;3.10;1.57;;;22.90;46.40;;;;;;5052463;28;20186;-73
2023/04/11 08:25:01;;;;;;;4.10;1.60;;;22.90;47.00;;;;;;5050831;28;20839;-72
2023/04/11 08:27:27;;;;;;;3.03;1.50;;;22.60;46.20;;;;;;5051970;28;20169;-72
2023/04/11 08:29:52;;;;;;;3.17;1.90;;;23.80;47.40;;;;;;5052263;28;20405;-72
2023/04/11 08:32:17;;;;;;;2.47;1.67;;;25.60;46.10;;;;;;5052260;28;20180;-71
2023/04/11 08:34:43;;;;;;;8.57;2.20;;;26.90;42.60;;;;;;5050937;28;20191;-72
2023/04/11 08:37:09;;;;;;;3.47;1.70;;;28.20;41.10;;;;;;5051743;28;20680;-71
2023/04/11 08:39:34;;;;;;;8.50;1.83;;;28.30;37.20;;;;;;5051956;28;20190;-74
2023/04/11 08:42:00;;;;;;;4.70;1.97;;;29.00;38.60;;;;;;5051960;28;20167;-71
2023/04/11 08:44:26;;;;;;;6.40;1.70;;;29.10;36.50;;;;;;5051957;28;20193;-72
2023/04/11 08:46:51;;;;;;;4.80;2.03;;;29.00;37.20;;;;;;5051923;28;20257;-72
2023/04/11 08:49:17;;;;;;;3.37;1.37;;;29.90;35.40;;;;;;5050643;28;20668;-72
2023/04/11 08:51:43;;;;;;;4.53;1.90;;;29.50;36.00;;;;;;5052037;28;20167;-71
2023/04/11 08:54:09;;;;;;;4.10;1.30;;;28.60;36.30;;;;;;5050543;28;20190;-71
2023/04/11 08:56:35;;;;;;;3.60;1.73;;;28.40;36.00;;;;;;5051731;28;20445;-72
2023/04/11 08:59:01;;;;;;;5.70;2.07;;;26.80;36.40;;;;;;5051637;28;20475;-72
2023/04/11 09:01:31;;;;;;;3.20;1.33;;;25.90;38.20;;;;;;5051995;28;20401;-71
2023/04/11 09:04:04;;;;;;;7.67;1.70;;;25.30;39.10;;;;;;5051779;28;20222;-70
2023/04/11 09:06:31;;;;;;;7.10;2.70;;;26.50;38.20;;;;;;5050568;28;20484;-71
2023/04/11 09:09:09;;;;;;;4.70;1.77;;;28.00;38.60;;;;;;5050198;28;20421;-71
2023/04/11 09:11:54;;;;;;;5.70;2.20;;;30.00;37.20;;;;;;5050567;28;20575;-71
2023/04/11 09:14:25;;;;;;;8.30;1.70;;;28.60;34.30;;;;;;5051480;28;20436;-72
2023/04/11 09:16:59;;;;;;;2.87;1.70;;;27.20;35.50;;;;;;5051440;28;20483;-71
2023/04/11 09:19:30;;;;;;;4.07;1.60;;;25.60;37.20;;;;;;5055418;28;20399;-71
2023/04/11 09:22:00;;;;;;;3.20;1.20;;;25.70;40.20;;;;;;5055731;28;20388;-73
2023/04/11 09:24:28;;;;;;;2.40;1.37;;;27.80;39.40;;;;;;5055881;28;20508;-72
2023/04/11 09:27:08;;;;;;;4.80;1.67;;;28.00;35.50;;;;;;5054104;28;20445;-73
2023/04/11 09:29:36;;;;;;;3.87;1.30;;;26.60;36.40;;;;;;5055524;28;20455;-73
2023/04/11 09:32:01;;;;;;;1.93;1.13;;;26.30;37.20;;;;;;5055392;28;20817;-71
2023/04/11 09:34:28;;;;;;;3.13;1.67;;;26.40;36.20;;;;;;5055652;28;20425;-72
2023/04/11 09:36:54;;;;;;;3.77;2.03;;;26.80;36.90;;;;;;5055136;28;20190;-72
2023/04/11 09:39:20;;;;;;;6.33;1.80;;;27.50;37.60;;;;;;5055377;28;20404;-74
2023/04/11 09:41:46;;;;;;;5.40;2.23;;;28.70;36.70;;;;;;5055356;28;20397;-71
2023/04/11 09:44:11;;;;;;;5.60;1.77;;;28.60;33.80;;;;;;5055265;28;20732;-71
2023/04/11 09:46:55;;;;;;;3.83;2.30;;;26.80;32.80;;;;;;5053936;28;20228;-72
2023/04/11 09:49:22;;;;;;;4.47;1.63;;;25.10;35.00;;;;;;5055179;28;20205;-71
2023/04/11 09:51:49;;;;;;;4.43;1.87;;;24.40;36.90;;;;;;5055195;28;20405;-71
2023/04/11 09:54:15;;;;;;;7.10;1.77;;;24.70;37.60;;;;;;5054772;28;20841;-71
2023/04/11 09:56:41;;;;;;;2.93;1.40;;;23.90;38.10;;;;;;5054997;28;20491;-73
2023/04/11 09:59:07;;;;;;;4.87;1.80;;;25.80;40.00;;;;;;5054717;28;20170;-72
2023/04/11 10:01:34;;;;;;;5.20;1.90;;;27.90;38.10;;;;;;5053645;28;21041;-72
2023/04/11 10:04:00;;;;;;;2.10;1.80;;;30.10;33.90;;;;;;5054861;28;20269;-72
2023/04/11 10:06:33;;;;;;;3.93;1.30;;;31.10;31.30;;;;;;5054533;28;20433;-72
2023/04/11 10:09:11;;;;;;;2.40;1.80;;;31.70;29.80;;;;;;5054573;28;20253;-74
2023/04/11 10:11:39;;;;;;;3.70;1.80;;;32.00;29.80;;;;;;5054759;28;20436;-72
2023/04/11 10:14:04;;;;;;;2.50;1.30;;;32.90;29.00;;;;;;5054658;28;20498;-72
2023/04/11 10:16:32;;;;;;;5.63;2.53;;;32.90;28.20;;;;;;5054566;28;20820;-72
2023/04/11 10:18:59;;;;;;;3.70;2.20;;;33.10;27.70;;;;;;5054490;28;20171;-72
2023/04/11 10:21:33;;;;;;;2.27;1.77;;;32.20;26.50;;;;;;5054493;28;21016;-72
2023/04/11 10:24:05;;;;;;;2.57;1.50;;;31.80;28.00;;;;;;5054614;28;20427;-72
2023/04/11 10:26:52;;;;;;;2.63;1.37;;;31.80;27.50;;;;;;5054507;28;20401;-72
2023/04/11 10:32:19;;;;;;;2.17;1.30;;;34.10;28.60;;;;;;5054563;28;20393;-72
2023/04/11 10:34:53;;;;;;;3.30;1.40;;;35.60;27.10;;;;;;5054224;28;20418;-72
2023/04/11 10:37:31;;;;;;;3.83;1.50;;;35.70;26.90;;;;;;5053885;28;21010;-72
2023/04/11 10:39:59;;;;;;;4.17;2.23;;;34.90;27.20;;;;;;5054403;28;20920;-72
2023/04/11 10:42:33;;;;;;;3.60;1.40;;;33.10;26.50;;;;;;5052624;28;20413;-71
2023/04/11 10:45:26;;;;;;;5.20;2.20;;;31.80;28.00;;;;;;5054291;28;20436;-72
2023/04/11 10:47:57;;;;;;;4.50;1.30;;;31.00;28.20;;;;;;5053857;28;20421;-73
2023/04/11 10:50:26;;;;;;;4.30;2.17;;;30.80;29.00;;;;;;5054150;28;20451;-72
2023/04/11 10:52:56;;;;;;;1.43;1.20;;;30.10;28.10;;;;;;5054148;28;20488;-72
2023/04/11 10:55:23;;;;;;;3.43;2.00;;;30.40;29.30;;;;;;5052601;28;20456;-71
2023/04/11 10:58:10;;;;;;;2.80;1.40;;;31.50;29.00;;;;;;5051035;28;20453;-71
2023/04/11 11:00:51;;;;;;;3.13;1.27;;;30.60;27.50;;;;;;5054063;28;20406;-71
2023/04/11 11:03:24;;;;;;;2.00;1.30;;;31.20;29.30;;;;;;5053792;28;20412;-71
2023/04/11 11:06:03;;;;;;;3.97;1.63;;;32.20;27.40;;;;;;5053995;28;20408;-71
2023/04/11 11:08:30;;;;;;;2.27;1.70;;;32.00;26.20;;;;;;5053309;28;20778;-73
2023/04/11 11:11:05;;;;;;;2.77;1.20;;;32.10;25.80;;;;;;5054143;28;20410;-71
2023/04/11 11:13:47;;;;;;;2.47;1.43;;;31.50;26.20;;;;;;5052328;28;21123;-72
2023/04/11 11:16:24;;;;;;;2.37;1.30;;;31.50;27.30;;;;;;5053716;28;20417;-72
2023/04/11 11:18:53;;;;;;;2.37;1.57;;;31.40;27.20;;;;;;5053268;28;20437;-72
2023/04/11 11:21:21;;;;;;;3.37;1.60;;;30.10;27.50;;;;;;5053461;28;20398;-71
2023/04/11 11:23:56;;;;;;;2.40;1.20;;;28.70;28.20;;;;;;5053277;28;20424;-71
2023/04/11 11:26:33;;;;;;;6.57;1.60;;;27.30;28.90;;;;;;5052293;28;20530;-71
2023/04/11 11:28:58;;;;;;;2.03;1.10;;;25.80;29.20;;;;;;5053122;28;20378;-72
2023/04/11 11:31:38;;;;;;;2.63;2.00;;;25.50;29.90;;;;;;5053365;28;20398;-71
2023/04/11 11:34:07;;;;;;;3.27;1.70;;;24.90;30.10;;;;;;5053137;28;20182;-73
2023/04/11 11:36:38;;;;;;;3.93;1.90;;;25.80;31.80;;;;;;5053092;28;20436;-72
2023/04/11 11:39:05;;;;;;;4.83;1.77;;;28.50;31.20;;;;;;5052863;28;20457;-71
2023/04/11 11:41:33;;;;;;;3.50;1.40;;;30.50;29.90;;;;;;5052339;28;20429;-70
2023/04/11 11:44:00;;;;;;;2.77;1.80;;;31.90;28.50;;;;;;5052939;28;20425;-70
2023/04/11 11:46:28;;;;;;;2.53;1.50;;;34.00;28.50;;;;;;5053028;28;20423;-72
2023/04/11 11:49:03;;;;;;;2.00;1.47;;;33.40;26.10;;;;;;5051302;28;20410;-71
2023/04/11 11:51:41;;;;;;;4.03;1.67;;;31.40;26.10;;;;;;5052977;28;20405;-71
2023/04/11 11:54:09;;;;;;;3.13;1.50;;;31.30;26.50;;;;;;5052823;28;20459;-71
2023/04/11 11:56:36;;;;;;;2.67;1.90;;;29.80;26.70;;;;;;5052746;28;20443;-71
2023/04/11 11:59:03;;;;;;;6.57;2.00;;;28.10;27.50;;;;;;5052513;28;20759;-71
2023/04/11 12:01:31;;;;;;;4.37;1.80;;;27.50;28.90;;;;;;5052816;28;20401;-71
2023/04/11 12:03:56;;;;;;;11.43;2.33;;;27.90;29.70;;;;;;5052536;28;20768;-71
2023/04/11 12:06:27;;;;;;;4.93;1.37;;;28.10;29.10;;;;;;5052499;28;20432;-72
2023/04/11 12:09:00;;;;;;;2.70;1.27;;;28.10;29.30;;;;;;5052348;28;20202;-71
2023/04/11 12:11:26;;;;;;;2.20;1.30;;;29.50;29.60;;;;;;5052445;28;20455;-71
2023/04/11 12:13:52;;;;;;;3.30;1.50;;;30.80;28.00;;;;;;5052277;28;20444;-71
2023/04/11 12:16:20;;;;;;;2.50;1.97;;;31.00;26.70;;;;;;5051087;28;20175;-72
2023/04/11 12:18:46;;;;;;;3.73;1.50;;;32.90;27.70;;;;;;5052013;28;20410;-71
2023/04/11 12:21:11;;;;;;;4.20;1.40;;;32.90;25.90;;;;;;5052467;28;20393;-72
2023/04/11 12:23:37;;;;;;;7.23;1.43;;;32.40;26.20;;;;;;5050985;28;20163;-71
2023/04/11 12:26:03;;;;;;;2.90;1.00;;;31.90;25.50;;;;;;5051968;28;20170;-72
2023/04/11 12:28:28;;;;;;;2.67;1.67;;;33.20;26.30;;;;;;5051976;28;20519;-72
2023/04/11 12:30:54;;;;;;;3.40;1.30;;;35.30;25.90;;;;;;5052232;28;20204;-72
2023/04/11 12:33:19;;;;;;;2.97;1.70;;;35.60;24.80;;;;;;5051993;28;20174;-72
2023/04/11 12:35:45;;;;;;;3.13;1.40;;;35.40;24.50;;;;;;5052135;28;20197;-72
2023/04/11 12:38:11;;;;;;;2.90;1.30;;;34.30;24.20;;;;;;5051938;28;20187;-73
2023/04/11 12:40:36;;;;;;;4.57;1.60;;;32.20;24.60;;;;;;5052121;28;20174;-71
2023/04/11 12:43:02;;;;;;;6.70;1.97;;;30.20;26.00;;;;;;5051850;28;20159;-72
2023/04/11 12:45:27;;;;;;;4.60;1.50;;;28.80;27.50;;;;;;5052084;28;20190;-72
2023/04/11 12:47:53;;;;;;;5.00;1.80;;;29.50;28.20;;;;;;5051414;28;20209;-73
2023/04/11 12:50:18;;;;;;;2.03;1.53;;;30.90;28.40;;;;;;5052040;28;20262;-71
2023/04/11 12:52:44;;;;;;;2.43;1.67;;;31.00;27.30;;;;;;5052251;28;20217;-72